createdAt,value
2019-04-16T00:00:26.525Z,96625.91
2019-04-16T00:02:58.515Z,96627.81
2019-04-16T00:05:44.163Z,96626.41
2019-04-16T00:08:27.142Z,96627.09
2019-04-16T00:10:54.550Z,96620.42
2019-04-16T00:13:28.751Z,96617.31
2019-04-16T00:16:01.641Z,96616.59
2019-04-16T00:18:32.761Z,96609.43
2019-04-16T00:21:22.000Z,96609.73
2019-04-16T00:24:19.177Z,96609.51
2019-04-16T00:26:58.050Z,96612.66
2019-04-16T00:29:32.565Z,96610.13
2019-04-16T00:32:07.867Z,96609.88
2019-04-16T00:34:37.209Z,96603.41
2019-04-16T00:37:08.195Z,96601.42
2019-04-16T00:39:39.509Z,96597.98
2019-04-16T00:42:10.713Z,96597.16
2019-04-16T00:44:42.029Z,96594.66
2019-04-16T00:47:13.026Z,96588.98
2019-04-16T00:49:44.457Z,96589.38
2019-04-16T00:52:15.559Z,96592.42
2019-04-16T00:54:46.825Z,96590.97
2019-04-16T00:57:18.638Z,96590.47
2019-04-16T00:59:49.627Z,96584.64
2019-04-16T01:02:20.747Z,96584.55
2019-04-16T01:04:51.811Z,96578.45
2019-04-16T01:07:23.791Z,96579.63
2019-04-16T01:09:54.832Z,96577.25
2019-04-16T01:12:25.978Z,96575.53
2019-04-16T01:15:00.697Z,96574.59
2019-04-16T01:17:29.701Z,96567.54
2019-04-16T01:20:00.774Z,96568.30
2019-04-16T01:22:31.753Z,96572.38
2019-04-16T01:25:02.786Z,96572.98
2019-04-16T01:27:37.224Z,96574.19
2019-04-16T01:30:09.894Z,96572.34
2019-04-16T01:32:49.740Z,96574.64
2019-04-16T01:35:38.472Z,96577.13
2019-04-16T01:38:28.587Z,96572.11
2019-04-16T01:41:02.074Z,96569.73
2019-04-16T01:43:33.361Z,96572.48
2019-04-16T01:46:04.535Z,96570.63
2019-04-16T01:48:38.637Z,96566.50
2019-04-16T01:51:08.221Z,96559.38
2019-04-16T01:53:40.217Z,96564.32
2019-04-16T01:56:11.416Z,96559.23
2019-04-16T01:58:42.839Z,96554.63
2019-04-16T02:01:13.858Z,96553.50
2019-04-16T02:03:48.617Z,96560.81
2019-04-16T02:06:17.650Z,96551.57
2019-04-16T02:08:48.661Z,96561.10
2019-04-16T02:11:19.710Z,96552.69
2019-04-16T02:13:50.683Z,96552.53
2019-04-16T02:16:22.316Z,96544.17
2019-04-16T02:18:54.378Z,96544.73
2019-04-16T02:21:25.349Z,96541.70
2019-04-16T02:23:56.428Z,96540.80
2019-04-16T02:26:28.684Z,96546.60
2019-04-16T02:28:59.684Z,96547.09
2019-04-16T02:31:30.701Z,96557.09
2019-04-16T02:34:01.664Z,96558.64
2019-04-16T02:36:32.696Z,96556.89
2019-04-16T02:39:07.241Z,96555.28
2019-04-16T02:41:38.309Z,96550.94
2019-04-16T02:44:14.045Z,96546.54
2019-04-16T02:46:42.219Z,96545.94
2019-04-16T02:49:13.174Z,96547.77
2019-04-16T02:52:03.100Z,96548.89
2019-04-16T02:54:39.579Z,96554.69
2019-04-16T02:57:28.464Z,96553.47
2019-04-16T03:00:04.424Z,96552.47
2019-04-16T03:02:53.659Z,96552.50
2019-04-16T03:05:28.978Z,96550.14
2019-04-16T03:08:01.442Z,96556.12
2019-04-16T03:10:32.326Z,96558.14
2019-04-16T03:13:03.393Z,96559.15
2019-04-16T03:15:52.310Z,96554.94
2019-04-16T03:18:28.003Z,96557.64
2019-04-16T03:20:59.038Z,96549.66
2019-04-16T03:23:30.030Z,96545.29
2019-04-16T03:26:01.404Z,96541.71
2019-04-16T03:28:32.351Z,96544.14
2019-04-16T03:31:08.068Z,96545.97
2019-04-16T03:33:36.258Z,96542.06
2019-04-16T03:36:07.426Z,96546.20
2019-04-16T03:38:41.924Z,96546.05
2019-04-16T03:41:11.416Z,96540.69
2019-04-16T03:43:42.369Z,96552.22
2019-04-16T03:46:14.183Z,96549.17
2019-04-16T03:48:45.364Z,96544.42
2019-04-16T03:51:16.414Z,96539.25
2019-04-16T03:53:49.575Z,96542.39
2019-04-16T03:56:20.138Z,96539.77
2019-04-16T03:58:51.113Z,96540.45
2019-04-16T04:01:22.169Z,96541.47
2019-04-16T04:03:57.076Z,96538.21
2019-04-16T04:06:26.230Z,96539.84
2019-04-16T04:08:57.192Z,96540.81
2019-04-16T04:11:28.915Z,96543.13
2019-04-16T04:13:59.876Z,96547.36
2019-04-16T04:16:33.535Z,96549.35
2019-04-16T04:19:03.835Z,96549.68
2019-04-16T04:21:34.817Z,96552.78
2019-04-16T04:24:05.957Z,96550.23
2019-04-16T04:26:41.211Z,96550.08
2019-04-16T04:29:09.649Z,96555.98
2019-04-16T04:31:40.571Z,96553.34
2019-04-16T04:34:15.784Z,96562.39
2019-04-16T04:36:44.249Z,96565.59
2019-04-16T04:39:15.949Z,96560.36
2019-04-16T04:41:47.159Z,96567.39
2019-04-16T04:44:18.230Z,96559.42
2019-04-16T04:46:49.290Z,96565.74
2019-04-16T04:49:20.388Z,96568.36
2019-04-16T04:51:51.496Z,96562.67
2019-04-16T04:54:23.486Z,96567.97
2019-04-16T04:56:56.387Z,96577.24
2019-04-16T04:59:27.833Z,96568.52
2019-04-16T05:01:59.154Z,96572.13
2019-04-16T05:04:52.452Z,96582.72
2019-04-16T05:07:25.763Z,96580.66
2019-04-16T05:09:56.976Z,96579.98
2019-04-16T05:12:29.105Z,96582.47
2019-04-16T05:15:03.664Z,96582.96
2019-04-16T05:17:35.525Z,96583.84
2019-04-16T05:20:06.586Z,96584.36
2019-04-16T05:22:38.629Z,96588.50
2019-04-16T05:25:10.243Z,96585.81
2019-04-16T05:27:41.668Z,96591.78
2019-04-16T05:30:12.866Z,96600.63
2019-04-16T05:32:43.862Z,96599.38
2019-04-16T05:35:14.917Z,96609.67
2019-04-16T05:37:48.471Z,96599.13
2019-04-16T05:40:18.603Z,96599.80
2019-04-16T05:42:52.539Z,96597.81
2019-04-16T05:45:22.218Z,96596.84
2019-04-16T05:47:53.203Z,96594.75
2019-04-16T05:50:28.741Z,96590.88
2019-04-16T05:52:58.601Z,96594.78
2019-04-16T05:55:37.726Z,96603.83
2019-04-16T05:58:08.823Z,96608.25
2019-04-16T06:00:44.602Z,96616.16
2019-04-16T06:03:20.628Z,96622.98
2019-04-16T06:05:48.537Z,96623.84
2019-04-16T06:08:19.872Z,96633.64
2019-04-16T06:10:51.272Z,96628.89
2019-04-16T06:13:49.224Z,96635.00
2019-04-16T06:16:25.844Z,96635.48
2019-04-16T06:19:19.142Z,96631.42
2019-04-16T06:22:21.470Z,96634.65
2019-04-16T06:25:08.247Z,96639.21
2019-04-16T06:27:46.488Z,96636.18
2019-04-16T06:30:35.188Z,96635.56
2019-04-16T06:33:15.702Z,96631.38
2019-04-16T06:36:10.224Z,96626.20
2019-04-16T06:38:57.817Z,96632.67
2019-04-16T06:41:52.726Z,96631.03
2019-04-16T06:44:29.841Z,96634.35
2019-04-16T06:47:04.560Z,96633.78
2019-04-16T06:50:03.700Z,96628.25
2019-04-16T06:52:42.009Z,96631.63
2019-04-16T06:55:24.643Z,96629.01
2019-04-16T06:58:07.970Z,96624.09
2019-04-16T07:01:05.916Z,96625.69
2019-04-16T07:03:51.488Z,96615.98
2019-04-16T07:06:36.153Z,96618.31
2019-04-16T07:09:23.382Z,96613.75
2019-04-16T07:11:55.038Z,96618.30
2019-04-16T07:17:20.873Z,96611.44
2019-04-16T07:19:51.975Z,96613.31
2019-04-16T07:22:23.072Z,96609.14
2019-04-16T07:25:03.848Z,96622.31
2019-04-16T07:27:45.401Z,96624.26
2019-04-16T07:30:23.486Z,96622.58
2019-04-16T07:33:19.612Z,96634.38
2019-04-16T07:36:15.888Z,96632.84
2019-04-16T07:39:28.773Z,96632.59
2019-04-16T07:42:10.751Z,96635.27
2019-04-16T07:44:57.058Z,96633.80
2019-04-16T07:47:53.408Z,96630.14
2019-04-16T07:50:39.267Z,96615.67
2019-04-16T07:53:25.747Z,96612.44
2019-04-16T07:55:59.652Z,96613.55
2019-04-16T07:58:31.890Z,96605.84
2019-04-16T08:01:05.115Z,96612.97
2019-04-16T08:03:36.359Z,96613.77
2019-04-16T08:06:10.709Z,96619.91
2019-04-16T08:08:40.647Z,96615.75
2019-04-16T08:11:11.778Z,96620.12
2019-04-16T08:13:43.836Z,96613.84
2019-04-16T08:16:14.996Z,96620.45
2019-04-16T08:18:50.697Z,96616.99
2019-04-16T08:21:22.739Z,96619.66
2019-04-16T08:24:03.028Z,96625.86
2019-04-16T08:26:34.130Z,96624.14
2019-04-16T08:29:05.661Z,96613.72
2019-04-16T08:31:40.856Z,96614.33
2019-04-16T08:34:12.772Z,96615.52
2019-04-16T08:36:44.002Z,96621.67
2019-04-16T08:39:16.030Z,96617.48
2019-04-16T08:41:52.144Z,96618.49
2019-04-16T08:44:20.209Z,96613.70
2019-04-16T08:46:51.357Z,96614.84
2019-04-16T08:49:23.038Z,96613.47
2019-04-16T08:52:01.571Z,96603.82
2019-04-16T08:54:32.772Z,96605.70
2019-04-16T08:57:03.957Z,96606.33
2019-04-16T08:59:35.153Z,96609.61
2019-04-16T09:02:07.154Z,96608.38
2019-04-16T09:04:39.425Z,96603.77
2019-04-16T09:07:29.549Z,96599.17
2019-04-16T09:10:01.104Z,96604.05
2019-04-16T09:12:32.529Z,96604.61
2019-04-16T09:15:03.746Z,96612.98
2019-04-16T09:17:38.128Z,96611.78
2019-04-16T09:20:11.664Z,96612.98
2019-04-16T09:22:49.301Z,96611.58
2019-04-16T09:25:42.577Z,96619.27
2019-04-16T09:28:25.808Z,96620.67
2019-04-16T09:31:06.951Z,96619.89
2019-04-16T09:33:48.073Z,96616.69
2019-04-16T09:36:39.317Z,96614.06
2019-04-16T09:39:20.237Z,96605.91
2019-04-16T09:41:51.538Z,96605.00
2019-04-16T09:44:22.692Z,96609.61
2019-04-16T09:46:56.607Z,96619.48
2019-04-16T09:49:26.587Z,96610.19
2019-04-16T09:51:57.827Z,96610.43
2019-04-16T09:54:32.389Z,96610.25
2019-04-16T09:57:09.170Z,96604.16
2019-04-16T09:59:47.742Z,96601.34
2019-04-16T10:02:22.964Z,96599.05
2019-04-16T10:04:54.101Z,96600.59
2019-04-16T10:07:25.285Z,96602.47
2019-04-16T10:09:56.408Z,96594.61
2019-04-16T10:12:27.493Z,96598.36
2019-04-16T10:14:58.585Z,96599.30
2019-04-16T10:17:29.851Z,96602.19
2019-04-16T10:20:00.919Z,96606.42
2019-04-16T10:22:32.241Z,96600.92
2019-04-16T10:25:06.417Z,96605.69
2019-04-16T10:27:40.353Z,96605.36
2019-04-16T10:30:30.858Z,96602.51
2019-04-16T10:33:02.238Z,96612.70
2019-04-16T10:35:33.589Z,96610.21
2019-04-16T10:38:15.615Z,96604.03
2019-04-16T10:40:51.726Z,96602.16
2019-04-16T10:43:44.644Z,96599.30
2019-04-16T10:46:42.281Z,96595.96
2019-04-16T10:49:19.490Z,96596.63
2019-04-16T10:52:04.635Z,96589.78
2019-04-16T10:54:43.454Z,96588.04
2019-04-16T10:57:38.407Z,96593.43
2019-04-16T11:00:35.446Z,96588.20
2019-04-16T11:03:14.969Z,96587.78
2019-04-16T11:06:05.297Z,96593.09
2019-04-16T11:08:37.056Z,96597.68
2019-04-16T11:11:08.429Z,96594.06
2019-04-16T11:13:58.323Z,96588.27
2019-04-16T11:16:18.693Z,96588.03
2019-04-16T11:18:49.913Z,96592.63
2019-04-16T11:21:21.399Z,96585.58
2019-04-16T11:23:52.566Z,96587.82
2019-04-16T11:26:23.745Z,96591.50
2019-04-16T11:28:54.992Z,96590.58
2019-04-16T11:31:26.813Z,96587.17
2019-04-16T11:33:58.060Z,96588.28
2019-04-16T11:36:31.632Z,96584.08
2019-04-16T11:39:04.034Z,96589.95
2019-04-16T11:41:36.241Z,96585.36
2019-04-16T11:44:14.774Z,96583.07
2019-04-16T11:46:45.748Z,96584.28
2019-04-16T11:49:17.094Z,96590.42
2019-04-16T11:51:48.296Z,96588.47
2019-04-16T11:54:19.686Z,96586.48
2019-04-16T11:56:50.873Z,96582.72
2019-04-16T11:59:22.185Z,96585.00
2019-04-16T12:02:05.124Z,96590.52
2019-04-16T12:04:58.837Z,96589.37
2019-04-16T12:07:58.060Z,96592.34
2019-04-16T12:10:53.849Z,96600.82
2019-04-16T12:13:44.959Z,96596.18
2019-04-16T12:16:28.196Z,96609.70
2019-04-16T12:19:17.759Z,96618.89
2019-04-16T12:21:59.760Z,96622.02
2019-04-16T12:25:04.958Z,96644.73
2019-04-16T12:27:50.044Z,96646.49
2019-04-16T12:30:40.153Z,96649.95
2019-04-16T12:33:31.970Z,96663.05
2019-04-16T12:36:22.377Z,96664.63
2019-04-16T12:39:01.652Z,96662.77
2019-04-16T12:41:49.393Z,96656.69
2019-04-16T12:44:50.120Z,96641.54
2019-04-16T12:47:40.580Z,96634.09
2019-04-16T12:50:29.710Z,96624.53
2019-04-16T12:53:13.801Z,96626.95
2019-04-16T12:56:08.577Z,96626.80
2019-04-16T12:58:44.140Z,96628.82
2019-04-16T13:01:37.316Z,96636.43
2019-04-16T13:04:12.787Z,96638.15
2019-04-16T13:07:09.149Z,96636.95
2019-04-16T13:10:08.679Z,96638.31
2019-04-16T13:13:00.145Z,96632.27
2019-04-16T13:15:45.065Z,96632.53
2019-04-16T13:18:23.599Z,96628.44
2019-04-16T13:21:03.857Z,96631.24
2019-04-16T13:23:38.541Z,96622.78
2019-04-16T13:26:27.714Z,96628.70
2019-04-16T13:29:00.314Z,96627.25
2019-04-16T13:31:31.375Z,96623.67
2019-04-16T13:34:02.548Z,96631.53
2019-04-16T13:36:33.668Z,96627.75
2019-04-16T13:39:20.909Z,96631.03
2019-04-16T13:41:51.999Z,96635.53
2019-04-16T13:44:25.437Z,96639.72
2019-04-16T13:47:01.331Z,96629.80
2019-04-16T13:49:40.619Z,96638.72
2019-04-16T13:52:17.013Z,96632.63
2019-04-16T13:55:10.562Z,96632.02
2019-04-16T13:57:42.538Z,96634.40
2019-04-16T14:00:19.935Z,96631.60
2019-04-16T14:02:54.145Z,96627.18
2019-04-16T14:05:25.241Z,96627.22
2019-04-16T14:07:56.363Z,96628.34
2019-04-16T14:10:27.490Z,96629.55
2019-04-16T14:12:58.925Z,96631.18
2019-04-16T14:15:39.071Z,96626.47
2019-04-16T14:18:06.451Z,96623.93
2019-04-16T14:20:37.557Z,96626.86
2019-04-16T14:23:08.666Z,96631.96
2019-04-16T14:25:39.708Z,96624.29
2019-04-16T14:28:11.177Z,96632.08
2019-04-16T14:30:46.191Z,96630.99
2019-04-16T14:33:25.167Z,96630.83
2019-04-16T14:35:56.192Z,96627.88
2019-04-16T14:38:36.959Z,96622.86
2019-04-16T14:41:08.542Z,96628.94
2019-04-16T14:43:42.320Z,96625.22
2019-04-16T14:46:13.485Z,96624.45
2019-04-16T14:48:46.467Z,96619.88
2019-04-16T14:51:17.473Z,96620.58
2019-04-16T14:53:56.840Z,96620.39
2019-04-16T14:56:36.711Z,96628.06
2019-04-16T14:59:38.745Z,96629.09
2019-04-16T15:02:29.374Z,96626.16
2019-04-16T15:05:09.277Z,96628.79
2019-04-16T15:07:59.900Z,96624.20
2019-04-16T15:11:05.312Z,96624.50
2019-04-16T15:13:58.323Z,96627.41
2019-04-16T15:16:40.019Z,96627.86
2019-04-16T15:19:25.758Z,96629.70
2019-04-16T15:22:00.122Z,96629.16
2019-04-16T15:24:38.156Z,96623.27
2019-04-16T15:27:18.562Z,96625.41
2019-04-16T15:29:56.504Z,96630.94
2019-04-16T15:32:59.751Z,96626.98
2019-04-16T15:35:37.783Z,96635.80
2019-04-16T15:38:29.608Z,96633.39
2019-04-16T15:41:35.068Z,96640.27
2019-04-16T15:44:10.263Z,96647.73
2019-04-16T15:47:00.679Z,96646.06
2019-04-16T15:49:37.510Z,96654.86
2019-04-16T15:52:27.290Z,96653.80
2019-04-16T15:55:16.333Z,96664.60
2019-04-16T15:58:13.111Z,96669.88
2019-04-16T16:00:52.697Z,96682.25
2019-04-16T16:03:52.027Z,96682.55
2019-04-16T16:06:24.743Z,96679.70
2019-04-16T16:09:20.887Z,96682.62
2019-04-16T16:11:57.025Z,96683.34
2019-04-16T16:14:33.214Z,96682.69
2019-04-16T16:17:01.706Z,96682.34
2019-04-16T16:19:32.855Z,96684.31
2019-04-16T16:22:03.959Z,96693.84
2019-04-16T16:24:36.064Z,96688.77
2019-04-16T16:27:07.724Z,96697.74
2019-04-16T16:29:38.869Z,96694.94
2019-04-16T16:32:10.060Z,96694.50
2019-04-16T16:34:41.217Z,96689.70
2019-04-16T16:37:12.574Z,96696.58
2019-04-16T16:39:43.714Z,96697.62
2019-04-16T16:42:15.830Z,96698.80
2019-04-16T16:44:49.505Z,96696.30
2019-04-16T16:47:48.853Z,96697.30
2019-04-16T16:50:20.051Z,96702.93
2019-04-16T16:53:05.609Z,96699.88
2019-04-16T16:55:39.606Z,96702.45
2019-04-16T16:58:41.800Z,96702.95
2019-04-16T17:01:23.344Z,96703.22
2019-04-16T17:04:19.418Z,96709.08
2019-04-16T17:06:50.741Z,96707.25
2019-04-16T17:09:27.155Z,96710.04
2019-04-16T17:12:04.305Z,96707.11
2019-04-16T17:14:37.742Z,96706.99
2019-04-16T17:17:14.329Z,96704.02
2019-04-16T17:19:41.630Z,96707.53
2019-04-16T17:22:14.633Z,96707.06
2019-04-16T17:24:45.674Z,96710.00
2019-04-16T17:27:16.880Z,96714.95
2019-04-16T17:29:49.982Z,96711.70
2019-04-16T17:32:22.125Z,96719.98
2019-04-16T17:34:53.656Z,96719.89
2019-04-16T17:37:27.935Z,96723.95
2019-04-16T17:40:05.294Z,96723.36
2019-04-16T17:42:39.237Z,96730.67
2019-04-16T17:45:28.324Z,96730.58
2019-04-16T17:48:14.178Z,96736.58
2019-04-16T17:51:04.255Z,96741.88
2019-04-16T17:53:45.635Z,96738.05
2019-04-16T17:56:35.609Z,96748.38
2019-04-16T17:59:09.830Z,96754.09
2019-04-16T18:01:58.778Z,96756.41
2019-04-16T18:04:38.505Z,96755.14
2019-04-16T18:07:34.255Z,96756.52
2019-04-16T18:10:26.581Z,96762.77
2019-04-16T18:13:15.451Z,96769.45
2019-04-16T18:16:16.672Z,96767.91
2019-04-16T18:19:28.754Z,96767.98
2019-04-16T18:31:14.109Z,96784.86
2019-04-16T18:34:14.562Z,96799.61
2019-04-16T18:37:37.113Z,96813.09
2019-04-16T18:40:31.156Z,96812.64
2019-04-16T18:43:27.321Z,96810.18
2019-04-16T18:46:27.064Z,96824.14
2019-04-16T18:49:05.919Z,96826.34
2019-04-16T18:51:47.659Z,96831.20
2019-04-16T18:54:32.943Z,96835.78
2019-04-16T18:57:05.596Z,96831.31
2019-04-16T18:59:36.876Z,96840.75
2019-04-16T19:02:09.786Z,96856.23
2019-04-16T19:04:41.162Z,96852.67
2019-04-16T19:07:12.543Z,96856.70
2019-04-16T19:09:43.813Z,96860.02
2019-04-16T19:12:16.160Z,96861.02
2019-04-16T19:14:52.355Z,96868.37
2019-04-16T19:17:23.652Z,96868.27
2019-04-16T19:19:54.938Z,96871.20
2019-04-16T19:22:26.125Z,96865.97
2019-04-16T19:24:57.447Z,96864.87
2019-04-16T19:27:34.346Z,96862.72
2019-04-16T19:30:06.631Z,96862.98
2019-04-16T19:32:37.905Z,96863.83
2019-04-16T19:35:11.402Z,96866.63
2019-04-16T19:37:42.382Z,96862.16
2019-04-16T19:40:16.095Z,96865.96
2019-04-16T19:42:50.496Z,96861.14
2019-04-16T19:45:22.304Z,96865.81
2019-04-16T19:47:53.668Z,96867.66
2019-04-16T19:50:25.118Z,96870.22
2019-04-16T19:52:56.362Z,96865.81
2019-04-16T19:55:27.687Z,96865.81
2019-04-16T19:57:58.962Z,96871.72
2019-04-16T20:00:30.544Z,96866.80
2019-04-16T20:03:01.976Z,96866.87
2019-04-16T20:05:33.324Z,96869.45
2019-04-16T20:08:04.637Z,96871.49
2019-04-16T20:10:35.944Z,96872.01
2019-04-16T20:13:07.306Z,96870.70
2019-04-16T20:15:43.309Z,96876.56
2019-04-16T20:18:11.816Z,96876.15
2019-04-16T20:20:42.976Z,96875.11
2019-04-16T20:23:14.269Z,96874.95
2019-04-16T20:25:45.603Z,96873.64
2019-04-16T20:28:16.903Z,96866.57
2019-04-16T20:30:48.100Z,96873.72
2019-04-16T20:33:20.316Z,96871.29
2019-04-16T20:35:53.274Z,96867.01
2019-04-16T20:38:29.050Z,96864.36
2019-04-16T20:40:57.579Z,96868.11
2019-04-16T20:43:28.862Z,96866.28
2019-04-16T20:46:00.506Z,96873.50
2019-04-16T20:48:31.872Z,96870.25
2019-04-16T20:51:03.253Z,96872.08
2019-04-16T20:53:34.496Z,96867.76
2019-04-16T20:56:10.036Z,96870.27
2019-04-16T20:58:39.284Z,96868.27
2019-04-16T21:01:10.610Z,96869.37
2019-04-16T21:03:41.903Z,96864.98
2019-04-16T21:06:13.336Z,96871.59
2019-04-16T21:08:48.246Z,96876.73
2019-04-16T21:11:19.457Z,96886.42
2019-04-16T21:13:50.792Z,96876.80
2019-04-16T21:16:21.949Z,96876.34
2019-04-16T21:18:53.140Z,96873.56
2019-04-16T21:21:24.456Z,96882.69
2019-04-16T21:24:06.880Z,96876.22
2019-04-16T21:26:33.760Z,96884.66
2019-04-16T21:29:14.244Z,96882.91
2019-04-16T21:31:47.548Z,96882.98
2019-04-16T21:34:30.244Z,96893.91
2019-04-16T21:37:15.966Z,96886.50
2019-04-16T21:39:55.646Z,96892.38
2019-04-16T21:42:26.875Z,96906.56
2019-04-16T21:44:58.116Z,96910.89
2019-04-16T21:47:29.446Z,96912.00
2019-04-16T21:50:01.833Z,96917.28
2019-04-16T21:52:33.115Z,96925.50
2019-04-16T21:55:06.357Z,96924.54
2019-04-16T21:57:37.672Z,96929.01
2019-04-16T22:00:17.485Z,96929.54
2019-04-16T22:02:50.846Z,96932.21
2019-04-16T22:05:23.120Z,96931.63
2019-04-16T22:07:57.067Z,96932.56
2019-04-16T22:10:27.318Z,96935.07
2019-04-16T22:12:58.526Z,96932.39
2019-04-16T22:15:29.904Z,96933.03
2019-04-16T22:18:07.585Z,96933.31
2019-04-16T22:20:35.706Z,96936.31
2019-04-16T22:23:07.841Z,96937.95
2019-04-16T22:25:39.383Z,96940.49
2019-04-16T22:28:12.748Z,96934.14
2019-04-16T22:30:45.349Z,96939.35
2019-04-16T22:33:16.813Z,96941.73
2019-04-16T22:35:48.090Z,96941.66
2019-04-16T22:38:23.942Z,96944.38
2019-04-16T22:41:17.168Z,96939.55
2019-04-16T22:44:02.001Z,96938.26
2019-04-16T22:46:42.267Z,96944.16
2019-04-16T22:49:13.435Z,96939.98
2019-04-16T22:51:44.633Z,96945.08
2019-04-16T22:54:17.639Z,96948.75
2019-04-16T22:56:52.935Z,96946.86
2019-04-16T22:59:24.113Z,96946.09
2019-04-16T23:01:55.313Z,96951.38
2019-04-16T23:04:27.174Z,96946.09
2019-04-16T23:06:58.645Z,96951.53
2019-04-16T23:09:31.248Z,96948.67
2019-04-16T23:12:02.745Z,96949.69
2019-04-16T23:14:34.951Z,96953.73
2019-04-16T23:17:06.941Z,96959.88
2019-04-16T23:19:39.161Z,96958.33
2019-04-16T23:22:14.261Z,96959.72
2019-04-16T23:24:43.548Z,96960.56
2019-04-16T23:27:15.138Z,96956.07
2019-04-16T23:29:47.536Z,96958.77
2019-04-16T23:32:19.715Z,96955.67
2019-04-16T23:34:50.992Z,96961.74
2019-04-16T23:37:23.248Z,96961.28
2019-04-16T23:39:55.167Z,96964.53
2019-04-16T23:42:26.496Z,96959.80
2019-04-16T23:45:12.999Z,96962.67
2019-04-16T23:48:15.815Z,96960.91
2019-04-16T23:51:07.546Z,96961.61
2019-04-16T23:53:49.591Z,96961.66
2019-04-16T23:56:25.872Z,96959.31
2019-04-16T23:59:02.941Z,96956.38
